• Join FlightAware (Why Join?)
  • Login
  • US Flag 
08:45PM EST


 

Airport Tracker/Info


-or-


 

Live Flight TrackerFlight Track Log ✈ AFL150 ✈ 09-Feb-2014 ✈ UUEE / SVO - MUHA / HAV

Flight Track Log - Related Links

Times and Time Zones

All times are in EST time to prevent confusion due to time zone crossing. See the AFL150 flight status page for this flight to view local times or setup timezone preferences in your user account.

Time Position Orientation Groundspeed Altitude Reporting Facility
EST Latitude Longitude Course Direction KTS MPH feet Rate Location/Type
04:42AM 56.2414 37.0810 318° Northwest  Level FlightAware Approximate
04:43AM 56.3321 36.9337 318° Northwest  Level FlightAware Approximate
04:44AM 56.4225 36.7857 318° Northwest  Level FlightAware Approximate
04:45AM 56.5128 36.6370 318° Northwest  Level FlightAware Approximate
04:46AM 56.6029 36.4876 318° Northwest  Level FlightAware Approximate
04:47AM 56.6928 36.3375 318° Northwest  Level FlightAware Approximate
04:48AM 56.7826 36.1866 317° Northwest  Level FlightAware Approximate
04:49AM 56.8721 36.0351 317° Northwest  Level FlightAware Approximate
04:50AM 56.9615 35.8828 317° Northwest  Level FlightAware Approximate
04:51AM 57.0507 35.7298 317° Northwest  Level FlightAware Approximate
04:52AM 57.1397 35.5760 317° Northwest  Level FlightAware Approximate
04:53AM 57.2285 35.4215 317° Northwest  Level FlightAware Approximate
04:54AM 57.3171 35.2663 317° Northwest  Level FlightAware Approximate
04:55AM 57.4055 35.1102 316° Northwest  Level FlightAware Approximate
04:56AM 57.4938 34.9535 316° Northwest  Level FlightAware Approximate
04:57AM 57.5818 34.7960 316° Northwest  Level FlightAware Approximate
04:58AM 57.6230 34.7215 315° West  Level FlightAware Approximate
04:59AM 57.7091 34.5598 315° West  Level FlightAware Approximate
05:00AM 57.7950 34.3972 315° West  Level FlightAware Approximate
05:01AM 57.8806 34.2339 315° West  Level FlightAware Approximate
05:02AM 57.9661 34.0698 315° West  Level FlightAware Approximate
05:03AM 58.0514 33.9050 314° West  Level FlightAware Approximate
05:04AM 58.1364 33.7393 314° West  Level FlightAware Approximate
05:05AM 58.2212 33.5728 314° West  Level FlightAware Approximate
05:06AM 58.3059 33.4056 314° West  Level FlightAware Approximate
05:07AM 58.3902 33.2375 314° West  Level FlightAware Approximate
05:08AM 58.4744 33.0687 314° West  Level FlightAware Approximate
05:09AM 58.5584 32.8990 314° West  Level FlightAware Approximate
05:10AM 58.6421 32.7286 313° West  Level FlightAware Approximate
05:11AM 58.7256 32.5573 313° West  Level FlightAware Approximate
05:12AM 58.8088 32.3851 313° West  Level FlightAware Approximate
05:13AM 58.8919 32.2122 313° West  Level FlightAware Approximate
05:14AM 58.9747 32.0384 313° West  Level FlightAware Approximate
05:15AM 59.0573 31.8638 313° West  Level FlightAware Approximate
05:16AM 59.1396 31.6884 312° West  Level FlightAware Approximate
05:17AM 59.2217 31.5121 312° West  Level FlightAware Approximate
05:18AM 59.3036 31.3349 312° West  Level FlightAware Approximate
05:19AM 59.3852 31.1569 312° West  Level FlightAware Approximate
05:20AM 59.4665 30.9780 312° West  Level FlightAware Approximate
05:21AM 59.5477 30.7983 312° West  Level FlightAware Approximate
05:22AM 59.6286 30.6177 312° West  Level FlightAware Approximate
05:23AM 59.7092 30.4363 311° West  Level FlightAware Approximate
05:24AM 59.7896 30.2539 311° West  Level FlightAware Approximate
05:25AM 59.8697 30.0707 311° West  Level FlightAware Approximate
05:26AM 59.9496 29.8866 311° West  Level FlightAware Approximate
05:27AM 60.0292 29.7017 311° West  Level FlightAware Approximate
05:28AM 60.1085 29.5158 311° West  Level FlightAware Approximate
05:29AM 60.1876 29.3290 310° West  Level FlightAware Approximate
05:30AM 60.2664 29.1413 310° West  Level FlightAware Approximate
05:31AM 60.3450 28.9527 310° West  Level FlightAware Approximate
05:32AM 60.4233 28.7633 310° West  Level FlightAware Approximate
05:33AM 60.5013 28.5729 310° West  Level FlightAware Approximate
05:34AM 60.5790 28.3815 310° West  Level FlightAware Approximate
05:35AM 60.6565 28.1893 309° West  Level FlightAware Approximate
05:36AM 60.7337 27.9961 309° West  Level FlightAware Approximate
05:37AM 60.8106 27.8020 309° West  Level FlightAware Approximate
05:38AM 60.8873 27.6070 309° West  Level FlightAware Approximate
05:39AM 60.9636 27.4111 309° West  Level FlightAware Approximate
05:40AM 61.0397 27.2141 309° West  Level FlightAware Approximate
05:41AM 61.1155 27.0163 308° West  Level FlightAware Approximate
05:42AM 61.1910 26.8175 308° West  Level FlightAware Approximate
05:43AM 61.2662 26.6178 308° West  Level FlightAware Approximate
05:44AM 61.3411 26.4170 308° West  Level FlightAware Approximate
05:45AM 61.4157 26.2154 308° West  Level FlightAware Approximate
05:46AM 61.4900 26.0127 308° West  Level FlightAware Approximate
05:47AM 61.5640 25.8091 307° West  Level FlightAware Approximate
05:48AM 61.6377 25.6046 307° West  Level FlightAware Approximate
05:49AM 61.7111 25.3990 307° West  Level FlightAware Approximate
05:50AM 61.7841 25.1925 307° West  Level FlightAware Approximate
05:51AM 61.8569 24.9849 307° West  Level FlightAware Approximate
05:52AM 61.9292 24.7763 306° West  Level FlightAware Approximate
05:53AM 62.0013 24.5666 306° West  Level FlightAware Approximate
05:54AM 62.0730 24.3560 306° West  Level FlightAware Approximate
05:55AM 62.1444 24.1444 306° West  Level FlightAware Approximate
05:56AM 62.2155 23.9318 306° West  Level FlightAware Approximate
05:57AM 62.2863 23.7182 306° West  Level FlightAware Approximate
05:58AM 62.3567 23.5036 305° West  Level FlightAware Approximate
05:59AM 62.4268 23.2880 305° West  Level FlightAware Approximate
06:00AM 62.4966 23.0713 305° West  Level FlightAware Approximate
06:01AM 62.5660 22.8537 305° West  Level FlightAware Approximate
06:02AM 62.6351 22.6350 305° West  Level FlightAware Approximate
06:03AM 62.7038 22.4153 304° West  Level FlightAware Approximate
06:04AM 62.7722 22.1946 304° West  Level FlightAware Approximate
06:05AM 62.8403 21.9729 304° West  Level FlightAware Approximate
06:06AM 62.9080 21.7502 304° West  Level FlightAware Approximate
06:07AM 62.9753 21.5264 304° West  Level FlightAware Approximate
06:08AM 63.0423 21.3016 303° West  Level FlightAware Approximate
06:09AM 63.1089 21.0757 303° West  Level FlightAware Approximate
06:10AM 63.1752 20.8489 303° West  Level FlightAware Approximate
06:11AM 63.2411 20.6209 303° West  Level FlightAware Approximate
06:12AM 63.3067 20.3920 303° West  Level FlightAware Approximate
06:13AM 63.3718 20.1620 302° West  Level FlightAware Approximate
06:14AM 63.4366 19.9309 302° West  Level FlightAware Approximate
06:15AM 63.5011 19.6989 302° West  Level FlightAware Approximate
06:16AM 63.5651 19.4657 302° West  Level FlightAware Approximate
06:17AM 63.6288 19.2315 302° West  Level FlightAware Approximate
06:18AM 63.6921 18.9963 301° West  Level FlightAware Approximate
06:19AM 63.7550 18.7600 301° West  Level FlightAware Approximate
06:20AM 63.8175 18.5227 301° West  Level FlightAware Approximate
06:21AM 63.8796 18.2843 301° West  Level FlightAware Approximate
06:22AM 63.9414 18.0449 300° West  Level FlightAware Approximate
06:23AM 64.0027 17.8044 300° West  Level FlightAware Approximate
06:24AM 64.0637 17.5629 300° West  Level FlightAware Approximate
06:25AM 64.1242 17.3202 300° West  Level FlightAware Approximate
06:26AM 64.1843 17.0766 300° West  Level FlightAware Approximate
06:27AM 64.2440 16.8319 299° West  Level FlightAware Approximate
06:28AM 64.3034 16.5861 299° West  Level FlightAware Approximate
06:29AM 64.3626 16.3397 299° West  Level FlightAware Approximate
06:30AM 64.4214 16.0922 299° West  Level FlightAware Approximate
06:31AM 64.4797 15.8437 299° West  Level FlightAware Approximate
06:32AM 64.5377 15.5941 298° West  Level FlightAware Approximate
06:33AM 64.5952 15.3434 298° West  Level FlightAware Approximate
06:34AM 64.6523 15.0917 298° West  Level FlightAware Approximate
06:35AM 64.7090 14.8389 298° West  Level FlightAware Approximate
06:36AM 64.7653 14.5851 298° West  Level FlightAware Approximate
06:37AM 64.8211 14.3302 297° West  Level FlightAware Approximate
06:38AM 64.8764 14.0743 297° West  Level FlightAware Approximate
06:39AM 64.9314 13.8173 297° West  Level FlightAware Approximate
06:40AM 64.9858 13.5592 297° West  Level FlightAware Approximate
06:41AM 65.0399 13.3001 296° West  Level FlightAware Approximate
06:42AM 65.0935 13.0400 296° West  Level FlightAware Approximate
06:43AM 65.1466 12.7788 296° West  Level FlightAware Approximate
06:44AM 65.1993 12.5166 296° West  Level FlightAware Approximate
06:45AM 65.2515 12.2533 295° West  Level FlightAware Approximate
06:46AM 65.3033 11.9890 295° West  Level FlightAware Approximate
06:47AM 65.3546 11.7236 295° West  Level FlightAware Approximate
06:48AM 65.4054 11.4573 295° West  Level FlightAware Approximate
06:49AM 65.4557 11.1898 294° West  Level FlightAware Approximate
06:50AM 65.5056 10.9214 294° West  Level FlightAware Approximate
06:51AM 65.5550 10.6519 294° West  Level FlightAware Approximate
06:52AM 65.6040 10.3815 294° West  Level FlightAware Approximate
06:53AM 65.6524 10.1100 294° West  Level FlightAware Approximate
06:54AM 65.7004 9.8375 293° West  Level FlightAware Approximate
06:55AM 65.7478 9.5640 293° West  Level FlightAware Approximate
06:56AM 65.7948 9.2894 293° West  Level FlightAware Approximate
06:57AM 65.8413 9.0139 293° West  Level FlightAware Approximate
06:58AM 65.8873 8.7374 292° West  Level FlightAware Approximate
06:59AM 65.9328 8.4599 292° West  Level FlightAware Approximate
07:00AM 65.9778 8.1814 292° West  Level FlightAware Approximate
07:01AM 66.0222 7.9020 292° West  Level FlightAware Approximate
07:02AM 66.0662 7.6216 291° West  Level FlightAware Approximate
07:03AM 66.1097 7.3402 291° West  Level FlightAware Approximate
07:04AM 66.1526 7.0578 291° West  Level FlightAware Approximate
07:05AM 66.1951 6.7745 290° West  Level FlightAware Approximate
07:06AM 66.2370 6.4903 290° West  Level FlightAware Approximate
07:07AM 66.2784 6.2051 290° West  Level FlightAware Approximate
07:08AM 66.3193 5.9189 290° West  Level FlightAware Approximate
07:09AM 66.3596 5.6319 289° West  Level FlightAware Approximate
07:10AM 66.3994 5.3439 289° West  Level FlightAware Approximate
07:11AM 66.4387 5.0550 289° West  Level FlightAware Approximate
07:12AM 66.4774 4.7653 289° West  Level FlightAware Approximate
07:13AM 66.5156 4.4746 288° West  Level FlightAware Approximate
07:14AM 66.5531 4.1829 288° West  Level FlightAware Approximate
07:15AM 66.5900 3.8903 288° West  Level FlightAware Approximate
07:16AM 66.6264 3.5968 287° West  Level FlightAware Approximate
07:17AM 66.6623 3.3025 287° West  Level FlightAware Approximate
07:18AM 66.6976 3.0073 287° West  Level FlightAware Approximate
07:19AM 66.7323 2.7113 287° West  Level FlightAware Approximate
07:20AM 66.7665 2.4145 286° West  Level FlightAware Approximate
07:21AM 66.8001 2.1168 286° West  Level FlightAware Approximate
07:22AM 66.8332 1.8183 286° West  Level FlightAware Approximate
07:23AM 66.8656 1.5191 286° West  Level FlightAware Approximate
07:24AM 66.8976 1.2190 285° West  Level FlightAware Approximate
07:25AM 66.9289 0.9182 285° West  Level FlightAware Approximate
07:26AM 66.9597 0.6166 285° West  Level FlightAware Approximate
07:27AM 66.9899 0.3143 284° West  Level FlightAware Approximate
07:28AM 67.0196 0.0112 284° West  Level FlightAware Approximate
07:29AM 67.0486 -0.2927 284° West  Level FlightAware Approximate
07:30AM 67.0771 -0.5972 284° West  Level FlightAware Approximate
07:31AM 67.1050 -0.9025 283° West  Level FlightAware Approximate
07:32AM 67.1323 -1.2084 283° West  Level FlightAware Approximate
07:33AM 67.1590 -1.5151 283° West  Level FlightAware Approximate
07:34AM 67.1852 -1.8224 283° West  Level FlightAware Approximate
07:35AM 67.2107 -2.1304 282° West  Level FlightAware Approximate
07:36AM 67.2357 -2.4390 282° West  Level FlightAware Approximate
07:37AM 67.2600 -2.7483 282° West  Level FlightAware Approximate
07:38AM 67.2838 -3.0581 281° West  Level FlightAware Approximate
07:39AM 67.3070 -3.3686 281° West  Level FlightAware Approximate
07:40AM 67.3295 -3.6797 281° West  Level FlightAware Approximate
07:41AM 67.3515 -3.9914 281° West  Level FlightAware Approximate
07:42AM 67.3729 -4.3036 280° West  Level FlightAware Approximate
07:43AM 67.3936 -4.6164 280° West  Level FlightAware Approximate
07:44AM 67.4138 -4.9297 280° West  Level FlightAware Approximate
07:45AM 67.4333 -5.2435 279° West  Level FlightAware Approximate
07:46AM 67.4522 -5.5578 279° West  Level FlightAware Approximate
07:47AM 67.4706 -5.8727 279° West  Level FlightAware Approximate
07:48AM 67.4883 -6.1880 278° West  Level FlightAware Approximate
07:49AM 67.5053 -6.5037 278° West  Level FlightAware Approximate
07:50AM 67.5218 -6.8200 278° West  Level FlightAware Approximate
07:51AM 67.5377 -7.1366 278° West  Level FlightAware Approximate
07:52AM 67.5529 -7.4537 277° West  Level FlightAware Approximate
07:53AM 67.5675 -7.7712 277° West  Level FlightAware Approximate
07:54AM 67.5815 -8.0890 277° West  Level FlightAware Approximate
07:55AM 67.5949 -8.4072 276° West  Level FlightAware Approximate
07:56AM 67.6077 -8.7258 276° West  Level FlightAware Approximate
07:57AM 67.6198 -9.0447 276° West  Level FlightAware Approximate
07:58AM 67.6313 -9.3639 276° West  Level FlightAware Approximate
07:59AM 67.6422 -9.6835 275° West  Level FlightAware Approximate
08:00AM 67.6524 -10.0033 275° West  Level FlightAware Approximate
08:01AM 67.6620 -10.3234 275° West  Level FlightAware Approximate
08:02AM 67.6710 -10.6437 274° West  Level FlightAware Approximate
08:03AM 67.6794 -10.9643 274° West  Level FlightAware Approximate
08:04AM 67.6871 -11.2851 274° West  Level FlightAware Approximate
08:05AM 67.6942 -11.6061 273° West  Level FlightAware Approximate
08:06AM 67.7007 -11.9272 273° West  Level FlightAware Approximate
08:07AM 67.7065 -12.2486 273° West  Level FlightAware Approximate
08:08AM 67.7117 -12.5701 273° West  Level FlightAware Approximate
08:09AM 67.7163 -12.8917 272° West  Level FlightAware Approximate
08:10AM 67.7202 -13.2135 272° West  Level FlightAware Approximate
08:11AM 67.7235 -13.5353 272° West  Level FlightAware Approximate
08:12AM 67.7262 -13.8573 271° West  Level FlightAware Approximate
08:13AM 67.7282 -14.1793 271° West  Level FlightAware Approximate
08:14AM 67.7296 -14.5013 271° West  Level FlightAware Approximate
08:15AM 67.7304 -14.8234 271° West  Level FlightAware Approximate
08:16AM 67.7305 -15.1454 270° West  Level FlightAware Approximate
08:17AM 67.7300 -15.4675 270° West  Level FlightAware Approximate
08:18AM 67.7288 -15.7896 270° West  Level FlightAware Approximate
08:19AM 67.7271 -16.1116 269° West  Level FlightAware Approximate
08:20AM 67.7246 -16.4336 269° West  Level FlightAware Approximate
08:21AM 67.7216 -16.7554 269° West  Level FlightAware Approximate
08:22AM 67.7179 -17.0772 268° West  Level FlightAware Approximate
08:23AM 67.7136 -17.3989 268° West  Level FlightAware Approximate
08:24AM 67.7086 -17.7205 268° West  Level FlightAware Approximate
08:25AM 67.7031 -18.0419 268° West  Level FlightAware Approximate
08:26AM 67.6969 -18.3631 267° West  Level FlightAware Approximate
08:27AM 67.6900 -18.6842 267° West  Level FlightAware Approximate
08:28AM 67.6825 -19.0051 267° West  Level FlightAware Approximate
08:29AM 67.6744 -19.3258 266° West  Level FlightAware Approximate
08:30AM 67.6657 -19.6462 266° West  Level FlightAware Approximate
08:31AM 67.6563 -19.9664 266° West  Level FlightAware Approximate
08:32AM 67.6463 -20.2863 265° West  Level FlightAware Approximate
08:33AM 67.6357 -20.6059 265° West  Level FlightAware Approximate
08:34AM 67.6244 -20.9253 265° West  Level FlightAware Approximate
08:35AM 67.6125 -21.2443 265° West  Level FlightAware Approximate
08:36AM 67.6000 -21.5630 264° West  Level FlightAware Approximate
08:37AM 67.5869 -21.8814 264° West  Level FlightAware Approximate
08:38AM 67.5732 -22.1994 264° West  Level FlightAware Approximate
08:39AM 67.5588 -22.5170 263° West  Level FlightAware Approximate
08:40AM 67.5438 -22.8342 263° West  Level FlightAware Approximate
08:41AM 67.5282 -23.1511 263° West  Level FlightAware Approximate
08:42AM 67.5120 -23.4674 263° West  Level FlightAware Approximate
08:43AM 67.4951 -23.7834 262° West  Level FlightAware Approximate
08:44AM 67.4777 -24.0989 262° West  Level FlightAware Approximate
08:45AM 67.4596 -24.4139 262° West  Level FlightAware Approximate
08:46AM 67.4409 -24.7284 261° West  Level FlightAware Approximate
08:47AM 67.4216 -25.0425 261° West  Level FlightAware Approximate
08:48AM 67.4017 -25.3560 261° West  Level FlightAware Approximate
08:49AM 67.3811 -25.6690 260° West  Level FlightAware Approximate
08:50AM 67.3600 -25.9814 260° West  Level FlightAware Approximate
08:51AM 67.3383 -26.2933 260° West  Level FlightAware Approximate
08:52AM 67.3160 -26.6046 260° West  Level FlightAware Approximate
08:53AM 67.2930 -26.9153 259° West  Level FlightAware Approximate
08:54AM 67.2695 -27.2255 259° West  Level FlightAware Approximate
08:55AM 67.2454 -27.5350 259° West  Level FlightAware Approximate
08:56AM 67.2207 -27.8438 258° West  Level FlightAware Approximate
08:57AM 67.1954 -28.1521 258° West  Level FlightAware Approximate
08:58AM 67.1695 -28.4596 258° West  Level FlightAware Approximate
08:59AM 67.1430 -28.7665 258° West  Level FlightAware Approximate
09:00AM 67.1159 -29.0728 257° West  Level FlightAware Approximate
09:01AM 67.0882 -29.3783 257° West  Level FlightAware Approximate
09:02AM 67.0600 -29.6831 257° West  Level FlightAware Approximate
09:03AM 67.0311 -29.9873 256° West  Level FlightAware Approximate
09:04AM 67.0017 -30.2906 256° West  Level FlightAware Approximate
09:05AM 66.9717 -30.5933 256° West  Level FlightAware Approximate
09:06AM 66.9412 -30.8952 256° West  Level FlightAware Approximate
09:07AM 66.9101 -31.1963 255° West  Level FlightAware Approximate
09:08AM 66.8782 -31.4965 254° West  Level FlightAware Approximate
09:09AM 66.8451 -31.7955 254° West  Level FlightAware Approximate
09:10AM 66.8115 -32.0937 254° West  Level FlightAware Approximate
09:11AM 66.7773 -32.3910 254° West  Level FlightAware Approximate
09:12AM 66.7425 -32.6876 254° West  Level FlightAware Approximate
09:13AM 66.7072 -32.9832 253° West  Level FlightAware Approximate
09:14AM 66.6713 -33.2780 253° West  Level FlightAware Approximate
09:15AM 66.6348 -33.5720 253° West  Level FlightAware Approximate
09:16AM 66.5984 -33.8656 253° West  Level FlightAware Approximate
09:17AM 66.5620 -34.1587 253° West  Level FlightAware Approximate
09:18AM 66.5251 -34.4509 253° West  Level FlightAware Approximate
09:19AM 66.4876 -34.7423 252° West  Level FlightAware Approximate
09:20AM 66.4496 -35.0328 252° West  Level FlightAware Approximate
09:21AM 66.4110 -35.3224 252° West  Level FlightAware Approximate
09:22AM 66.3719 -35.6111 251° West  Level FlightAware Approximate
09:23AM 66.3323 -35.8989 251° West  Level FlightAware Approximate
09:24AM 66.2921 -36.1858 251° West  Level FlightAware Approximate
09:25AM 66.2514 -36.4718 251° West  Level FlightAware Approximate
09:26AM 66.2102 -36.7569 250° West  Level FlightAware Approximate
09:27AM 66.1685 -37.0410 250° West  Level FlightAware Approximate
09:28AM 66.1262 -37.3242 250° West  Level FlightAware Approximate
09:29AM 66.0835 -37.6064 250° West  Level FlightAware Approximate
09:30AM 66.0402 -37.8877 249° West  Level FlightAware Approximate
09:31AM 65.9964 -38.1680 249° West  Level FlightAware Approximate
09:32AM 65.9521 -38.4473 249° West  Level FlightAware Approximate
09:33AM 65.9072 -38.7257 249° West  Level FlightAware Approximate
09:34AM 65.8619 -39.0031 248° West  Level FlightAware Approximate
09:35AM 65.8161 -39.2795 248° West  Level FlightAware Approximate
09:36AM 65.7698 -39.5549 248° West  Level FlightAware Approximate
09:37AM 65.7230 -39.8294 248° West  Level FlightAware Approximate
09:38AM 65.6757 -40.1028 247° West  Level FlightAware Approximate
09:39AM 65.6278 -40.3750 247° West  Level FlightAware Approximate
09:40AM 65.5791 -40.6461 247° West  Level FlightAware Approximate
09:41AM 65.5300 -40.9161 246° West  Level FlightAware Approximate
09:42AM 65.4804 -41.1851 246° West  Level FlightAware Approximate
09:43AM 65.4303 -41.4530 246° West  Level FlightAware Approximate
09:44AM 65.3798 -41.7200 246° West  Level FlightAware Approximate
09:45AM 65.3288 -41.9859 245° Southwest  Level FlightAware Approximate
09:46AM 65.2773 -42.2508 245° Southwest  Level FlightAware Approximate
09:47AM 65.2253 -42.5146 245° Southwest  Level FlightAware Approximate
09:48AM 65.1729 -42.7774 245° Southwest  Level FlightAware Approximate
09:49AM 65.1201 -43.0392 244° Southwest  Level FlightAware Approximate
09:50AM 65.0667 -43.2999 244° Southwest  Level FlightAware Approximate
09:51AM 65.0130 -43.5596 244° Southwest  Level FlightAware Approximate
09:52AM 64.9588 -43.8182 244° Southwest  Level FlightAware Approximate
09:53AM 64.9041 -44.0757 244° Southwest  Level FlightAware Approximate
09:54AM 64.8490 -44.3323 243° Southwest  Level FlightAware Approximate
09:55AM 64.7934 -44.5877 243° Southwest  Level FlightAware Approximate
09:56AM 64.7374 -44.8422 243° Southwest  Level FlightAware Approximate
09:57AM 64.6810 -45.0955 243° Southwest  Level FlightAware Approximate
09:58AM 64.6242 -45.3478 242° Southwest  Level FlightAware Approximate
09:59AM 64.5669 -45.5990 242° Southwest  Level FlightAware Approximate
10:00AM 64.5092 -45.8492 242° Southwest  Level FlightAware Approximate
10:01AM 64.4511 -46.0984 242° Southwest  Level FlightAware Approximate
10:02AM 64.3925 -46.3464 241° Southwest  Level FlightAware Approximate
10:03AM 64.3335 -46.5934 241° Southwest  Level FlightAware Approximate
10:04AM 64.2742 -46.8394 241° Southwest  Level FlightAware Approximate
10:05AM 64.2144 -47.0843 241° Southwest  Level FlightAware Approximate
10:06AM 64.1542 -47.3281 241° Southwest  Level FlightAware Approximate
10:07AM 64.0936 -47.5709 240° Southwest  Level FlightAware Approximate
10:08AM 64.0326 -47.8126 240° Southwest  Level FlightAware Approximate
10:09AM 63.9712 -48.0532 240° Southwest  Level FlightAware Approximate
10:10AM 63.9094 -48.2928 240° Southwest  Level FlightAware Approximate
10:11AM 63.8472 -48.5314 239° Southwest  Level FlightAware Approximate
10:12AM 63.7846 -48.7689 239° Southwest  Level FlightAware Approximate
10:13AM 63.7216 -49.0053 239° Southwest  Level FlightAware Approximate
10:14AM 63.6582 -49.2407 239° Southwest  Level FlightAware Approximate
10:15AM 63.5945 -49.4750 239° Southwest  Level FlightAware Approximate
10:16AM 63.5304 -49.7083 238° Southwest  Level FlightAware Approximate
10:17AM 63.4659 -49.9405 238° Southwest  Level FlightAware Approximate
10:18AM 63.4010 -50.1717 238° Southwest  Level FlightAware Approximate
10:19AM 63.3358 -50.4018 238° Southwest  Level FlightAware Approximate
10:20AM 63.2701 -50.6309 238° Southwest  Level FlightAware Approximate
10:21AM 63.2042 -50.8589 237° Southwest  Level FlightAware Approximate
10:22AM 63.1378 -51.0859 237° Southwest  Level FlightAware Approximate
10:23AM 63.0711 -51.3119 237° Southwest  Level FlightAware Approximate
10:24AM 63.0040 -51.5368 237° Southwest  Level FlightAware Approximate
10:25AM 62.9366 -51.7607 237° Southwest  Level FlightAware Approximate
10:26AM 62.8689 -51.9836 236° Southwest  Level FlightAware Approximate
10:27AM 62.8007 -52.2054 236° Southwest  Level FlightAware Approximate
10:28AM 62.7323 -52.4262 236° Southwest  Level FlightAware Approximate
10:29AM 62.6634 -52.6460 236° Southwest  Level FlightAware Approximate
10:30AM 62.5943 -52.8647 236° Southwest  Level FlightAware Approximate
10:30AM 63.5000 -55.5667 220° Southwest 460 529 37,000  Level Gander Center
10:31AM 62.5248 -53.0825 235° Southwest  Level FlightAware Approximate
10:32AM 62.4549 -53.2992 235° Southwest  Level FlightAware Approximate
10:32AM 63.3667 -56.0333 238° Southwest 480 552 37,000  Level Gander Center
10:33AM 62.3591 -53.4728 220° Southwest  Level Estimated
10:33AM 63.2833 -56.3167 237° Southwest 490 564 37,000  Level Gander Center
10:34AM 62.2630 -53.6453 220° Southwest  Level Estimated
10:34AM 63.2167 -56.5500 238° Southwest 480 552 37,000  Level Gander Center
10:35AM 62.1666 -53.8168 220° Southwest  Level Estimated
10:35AM 63.1333 -56.8167 235° Southwest 490 564 37,000  Level Gander Center
10:36AM 62.0701 -53.9871 220° Southwest  Level Estimated
10:36AM 63.0833 -57.0333 243° Southwest 480 552 37,000  Level Gander Center
10:37AM 62.9833 -57.3000 231° Southwest 490 564 37,000  Level Gander Center
10:38AM 62.9167 -57.5333 238° Southwest 490 564 37,000  Level Gander Center
10:39AM 62.8500 -57.7667 238° Southwest 480 552 37,000  Level Gander Center
10:40AM 62.7667 -57.9000 216° Southwest 480 552 37,000  Level Montreal Center
10:41AM 62.7000 -58.1333 238° Southwest 480 552 37,000  Level Montreal Center
10:42AM 62.6167 -58.3667 232° Southwest 480 552 37,000  Level Montreal Center
10:43AM 62.5500 -58.6333 242° Southwest 480 552 37,000  Level Montreal Center
10:44AM 62.4667 -58.8667 232° Southwest 490 564 37,000  Level Montreal Center
10:45AM 62.3833 -59.1000 232° Southwest 490 564 37,000  Level Montreal Center
10:46AM 62.3167 -59.3167 237° Southwest 490 564 37,000  Level Montreal Center
10:47AM 62.2167 -59.5833 231° Southwest 490 564 37,000  Level Montreal Center
10:48AM 62.1500 -59.8167 239° Southwest 490 564 37,000  Level Montreal Center
10:49AM 62.0667 -60.0333 231° Southwest 490 564 37,000  Level Montreal Center
10:50AM 61.9833 -60.2667 233° Southwest 490 564 37,000  Level Montreal Center
10:51AM 61.9167 -60.4833 237° Southwest 480 552 37,000  Level Montreal Center
10:52AM 61.8167 -60.7500 232° Southwest 480 552 37,000  Level Montreal Center
10:53AM 61.7333 -60.9667 231° Southwest 480 552 37,000  Level Montreal Center
10:54AM 61.6667 -61.1833 237° Southwest 480 552 37,000  Level Montreal Center
10:55AM 61.5833 -61.4000 231° Southwest 470 541 37,000  Level Montreal Center
10:56AM 61.5000 -61.6167 231° Southwest 470 541 37,000  Level Montreal Center
10:57AM 61.4000 -61.8333 226° Southwest 470 541 37,000  Level Montreal Center
10:58AM 61.3167 -62.0500 231° Southwest 480 552 37,000  Level Montreal Center
10:59AM 61.2500 -62.2667 237° Southwest 480 552 37,000  Level Montreal Center
11:00AM 61.1667 -62.4667 229° Southwest 480 552 37,000  Level Montreal Center
11:02AM 61.0000 -63.0000 237° Southwest 490 564 37,000  Level Gander Center
11:03AM 60.9167 -63.2000 229° Southwest 490 564 37,000 480 Level Gander Center
11:04AM 60.8333 -63.4333 234° Southwest 480 552 38,000 480 Climbing Gander Center
11:05AM 60.7500 -63.6333 230° Southwest 460 529 38,000  Level Gander Center
11:06AM 60.6667 -63.8333 230° Southwest 460 529 38,000  Level Gander Center
11:07AM 60.5833 -64.0167 227° Southwest 460 529 38,000  Level Gander Center
11:08AM 60.5000 -64.2167 230° Southwest 460 529 38,000  Level Gander Center
11:09AM 60.4333 -64.4167 236° Southwest 460 529 38,000  Level Gander Center
11:10AM 60.3500 -64.6167 230° Southwest 460 529 38,000  Level Gander Center
11:11AM 60.2500 -64.8000 222° Southwest 460 529 38,000  Level Gander Center
11:12AM 60.1667 -65.0000 230° Southwest 470 541 38,000  Level Gander Center
11:13AM 60.0833 -65.1833 228° Southwest 470 541 38,000  Level Gander Center
11:14AM 59.9833 -65.3667 223° Southwest 470 541 38,000  Level Gander Center
11:15AM 59.8667 -65.5000 210° Southwest 480 552 38,000  Level Montreal Center
11:16AM 59.7833 -65.6833 228° Southwest 480 552 38,000  Level Montreal Center
11:17AM 59.6667 -65.8500 216° Southwest 480 552 38,000  Level Montreal Center
11:18AM 59.5667 -66.0167 220° Southwest 480 552 38,000  Level Montreal Center
11:19AM 59.4667 -66.2167 226° Southwest 480 552 38,000  Level Montreal Center
11:20AM 59.3667 -66.3833 220° Southwest 470 541 38,000  Level Montreal Center
11:21AM 59.2667 -66.5333 217° Southwest 470 541 38,000  Level Montreal Center
11:22AM 59.1667 -66.7000 221° Southwest 470 541 38,000  Level Montreal Center
11:23AM 59.0667 -66.8500 218° Southwest 470 541 38,000  Level Montreal Center
11:24AM 58.9667 -67.0500 226° Southwest 470 541 38,000  Level Montreal Center
11:25AM 58.8667 -67.2000 218° Southwest 470 541 38,000  Level Montreal Center
11:26AM 58.7667 -67.3500 218° Southwest 470 541 38,000  Level Montreal Center
11:28AM 58.5833 -67.7167 226° Southwest 470 541 38,000  Level Gander Center
11:29AM 58.4667 -67.8500 211° Southwest 470 541 38,000  Level Gander Center
11:30AM 58.3667 -68.0167 221° Southwest 470 541 38,000  Level Gander Center
11:31AM 58.2667 -68.2000 224° Southwest 480 552 38,000  Level Gander Center
11:32AM 58.1667 -68.3667 221° Southwest 500 575 38,000  Level Gander Center
11:33AM 58.0667 -68.4500 204° Southwest 590 679 38,000  Level Montreal Center
11:34AM 57.9667 -68.6000 219° Southwest 480 552 38,000  Level Montreal Center
11:35AM 57.8500 -68.7500 214° Southwest 470 541 38,000  Level Montreal Center
11:36AM 57.7333 -68.9000 214° Southwest 470 541 38,000  Level Montreal Center
11:37AM 57.6500 -69.0333 221° Southwest 470 541 38,000  Level Montreal Center
11:39AM 57.4333 -69.3000 212° Southwest 460 529 38,000  Level Montreal Center
11:41AM 57.2167 -69.5833 215° Southwest 450 518 38,000  Level Montreal Center
11:42AM 57.1167 -69.7333 219° Southwest 450 518 38,000  Level Montreal Center
11:43AM 57.0167 -69.8667 216° Southwest 450 518 38,000  Level Montreal Center
11:44AM 56.9167 -69.9833 213° Southwest 460 529 38,000  Level Montreal Center
11:45AM 56.8000 -70.1167 212° Southwest 460 529 38,000  Level Montreal Center
11:46AM 56.7167 -70.2500 221° Southwest 460 529 38,000  Level Montreal Center
11:47AM 56.6000 -70.4000 215° Southwest 460 529 38,000  Level Montreal Center
11:48AM 56.4833 -70.5333 212° Southwest 460 529 38,000  Level Montreal Center
11:49AM 56.3833 -70.6333 209° Southwest 460 529 38,000  Level Montreal Center
11:50AM 56.2833 -70.7667 217° Southwest 450 518 38,000  Level Montreal Center
11:51AM 56.1833 -70.9167 220° Southwest 460 529 38,000  Level Montreal Center
11:52AM 56.0667 -71.0500 213° Southwest 460 529 38,000  Level Montreal Center
11:53AM 55.9500 -71.1500 206° Southwest 450 518 38,000  Level Montreal Center
11:55AM 55.7500 -71.4167 217° Southwest 450 518 38,000  Level Montreal Center
11:56AM 55.6500 -71.5500 217° Southwest 450 518 38,000  Level Montreal Center
11:57AM 55.5500 -71.6500 210° Southwest 450 518 38,000  Level Montreal Center
11:58AM 55.4333 -71.7833 213° Southwest 450 518 38,000  Level Montreal Center
11:59AM 55.3500 -71.9000 219° Southwest 450 518 38,000  Level Montreal Center
12:00PM 55.2333 -72.0000 206° Southwest 450 518 38,000  Level Montreal Center
12:01PM 55.1333 -72.1333 217° Southwest 460 529 38,000  Level Montreal Center
12:02PM 55.0167 -72.2667 213° Southwest 460 529 38,000  Level Montreal Center
12:03PM 54.9167 -72.3833 214° Southwest 450 518 38,000  Level Montreal Center
12:05PM 54.6833 -72.6167 210° Southwest 440 506 38,000  Level Montreal Center
12:06PM 54.6000 -72.7333 219° Southwest 440 506 38,000  Level Montreal Center
12:08PM 54.3833 -72.9500 210° Southwest 440 506 38,000  Level Montreal Center
12:09PM 54.2833 -73.0833 218° Southwest 440 506 38,000  Level Montreal Center
12:10PM 54.1833 -73.2000 214° Southwest 440 506 38,000  Level Montreal Center
12:11PM 54.0833 -73.3000 210° Southwest 430 495 38,000  Level Montreal Center
12:12PM 53.9833 -73.4167 214° Southwest 430 495 38,000  Level Montreal Center
12:13PM 53.8833 -73.5000 206° Southwest 430 495 38,000  Level Montreal Center
12:14PM 53.7667 -73.6333 214° Southwest 430 495 38,000  Level Montreal Center
12:15PM 53.6667 -73.7167 206° Southwest 430 495 38,000  Level Montreal Center
12:16PM 53.5500 -73.8167 207° Southwest 440 506 38,000  Level Montreal Center
12:17PM 53.4333 -73.9333 211° Southwest 430 495 38,000  Level Montreal Center
12:18PM 53.3333 -74.0167 206° Southwest 430 495 38,000  Level Montreal Center
12:19PM 53.2167 -74.1000 203° Southwest 430 495 38,000  Level Montreal Center
12:20PM 53.1167 -74.2000 211° Southwest 440 506 38,000  Level Montreal Center
12:22PM 52.9167 -74.3667 207° Southwest 440 506 38,000  Level Montreal Center
12:23PM 52.8000 -74.4667 207° Southwest 440 506 38,000  Level Montreal Center
12:24PM 52.6833 -74.5500 203° Southwest 440 506 38,000  Level Montreal Center
12:25PM 52.5833 -74.6333 207° Southwest 440 506 38,000  Level Montreal Center
12:26PM 52.4500 -74.7167 201° Southwest 440 506 38,000  Level Montreal Center
12:27PM 52.3333 -74.8000 204° Southwest 440 506 38,000  Level Montreal Center
12:28PM 52.2333 -74.9000 211° Southwest 440 506 38,000  Level Montreal Center
12:29PM 52.1167 -74.9833 204° Southwest 440 506 38,000  Level Montreal Center
12:30PM 52.0167 -75.0833 212° Southwest 450 518 38,000  Level Montreal Center
12:31PM 51.9000 -75.1667 204° Southwest 440 506 38,000  Level Montreal Center
12:32PM 51.7833 -75.2500 204° Southwest 430 495 38,000  Level Montreal Center
12:33PM 51.6833 -75.3333 207° Southwest 430 495 38,000  Level Montreal Center
12:34PM 51.5667 -75.4167 204° Southwest 430 495 38,000  Level Montreal Center
12:35PM 51.4667 -75.5000 207° Southwest 430 495 38,000  Level Montreal Center
12:36PM 51.3500 -75.5833 204° Southwest 430 495 38,000  Level Montreal Center
12:37PM 51.2500 -75.6667 208° Southwest 430 495 38,000  Level Montreal Center
12:38PM 51.1333 -75.7500 204° Southwest 430 495 38,000  Level Montreal Center
12:39PM 51.0333 -75.8333 208° Southwest 440 506 38,000  Level Montreal Center
12:41PM 50.8167 -76.0000 206° Southwest 440 506 38,000  Level Montreal Center
12:44PM 50.4833 -76.2333 204° Southwest 430 495 38,000  Level Montreal Center
12:45PM 50.3833 -76.3167 208° Southwest 430 495 38,000  Level Montreal Center
12:46PM 50.2667 -76.3833 200° South 430 495 38,000  Level Montreal Center
12:48PM 50.0333 -76.5500 204° Southwest 440 506 38,000  Level Montreal Center
12:49PM 49.9167 -76.6167 200° South 430 495 38,000  Level Montreal Center
12:50PM 49.8167 -76.7000 208° Southwest 430 495 38,000  Level Montreal Center
12:51PM 49.7000 -76.8000 209° Southwest 430 495 38,000  Level Montreal Center
12:53PM 49.5000 -76.9167 203° Southwest 420 483 38,000  Level Montreal Center
12:54PM 49.3667 -77.0000 202° Southwest 450 518 38,000  Level Montreal Center
12:56PM 49.1667 -77.1667 209° Southwest 420 483 38,000  Level Montreal Center
12:57PM 49.0500 -77.2167 196° South 430 495 38,000  Level Montreal Center
12:58PM 48.9333 -77.3167 209° Southwest 430 495 38,000  Level Montreal Center
12:59PM 48.8167 -77.3667 196° South 430 495 38,000  Level Montreal Center
01:00PM 48.7167 -77.4667 213° Southwest 430 495 38,000  Level Montreal Center
01:01PM 48.5500 -77.5500 198° South 430 495 38,000  Level Toronto Center
01:02PM 48.4333 -77.6167 201° Southwest 440 506 38,000  Level Toronto Center
01:03PM 48.3167 -77.7000 205° Southwest 440 506 38,000  Level Toronto Center
01:05PM 48.1667 -77.8333 211° Southwest 430 495 38,000  Level Montreal Center
01:06PM 48.0667 -77.8833 198° South 430 495 38,000  Level Montreal Center
01:07PM 47.9333 -77.9500 199° South 430 495 38,000  Level Montreal Center
01:08PM 47.7500 -78.0167 194° South 430 495 38,000  Level Toronto Center
01:09PM 47.6333 -78.1000 206° Southwest 430 495 38,000  Level Toronto Center
01:10PM 47.5333 -78.1500 199° South 430 495 38,000  Level Toronto Center
01:12PM 47.3833 -78.2667 208° Southwest 420 483 38,000  Level Montreal Center
01:13PM 47.2833 -78.3500 209° Southwest 420 483 38,000  Level Montreal Center
01:14PM 47.1667 -78.4167 201° Southwest 430 495 38,000  Level Montreal Center
01:15PM 47.0500 -78.4500 191° South 430 495 38,000  Level Montreal Center
01:16PM 46.9333 -78.5167 201° Southwest 430 495 38,000  Level Montreal Center
01:16PM 46.8667 -78.5333 190° South 430 495 38,000  Level Toronto Center
01:19PM 46.6167 -78.7333 209° Southwest 430 495 38,000  Level Montreal Center
01:19PM 46.5333 -78.7333 180° South 430 495 38,000  Level Toronto Center
01:20PM 46.4333 -78.7833 199° South 430 495 38,000  Level Toronto Center
01:21PM 46.3167 -78.8667 206° Southwest 430 495 38,000  Level Toronto Center
01:23PM 46.1000 -78.9667 198° South 420 483 38,000  Level Toronto Center
01:30PM 45.4167 -79.3593 198° South 413 475 38,000  Level FlightAware ADS-B
01:31PM 45.3112 -79.4148 200° South 413 475 38,000  Level FlightAware ADS-B
01:33PM 45.0193 -79.5676 200° South 415 478 38,000  Level FlightAware ADS-B
01:34PM 44.9495 -79.6038 200° South 421 484 38,000  Level FlightAware ADS-B (CYOW)
01:36PM 44.8247 -79.6685 200° South 418 481 38,000  Level FlightAware ADS-B (CYOW)
01:36PM 44.6816 -79.7422 200° South 415 478 38,000  Level FlightAware ADS-B (EPWA / WAW)
01:37PM 44.6816 -79.7422 223° Southwest 415 478 38,000  Level FlightAware ADS-B
01:38PM 44.5478 -79.8230 203° Southwest 408 470 38,000  Level FlightAware ADS-B (EPWA / WAW)
01:38PM 44.4978 -79.8681 213° Southwest 407 468 38,000  Level FlightAware ADS-B (EPWA / WAW)
01:39PM 44.4358 -79.9249 213° Southwest 408 470 38,000  Level FlightAware ADS-B (EPWA / WAW)
01:39PM 44.4472 -79.9146 33° Northeast 403 464 38,000  Level FlightAware ADS-B
01:40PM 44.3727 -79.9819 213° Southwest 405 466 38,000  Level FlightAware ADS-B
01:40PM 44.3084 -80.0396 213° Southwest 408 470 38,000  Level FlightAware ADS-B
01:41PM 44.2482 -80.0935 213° Southwest 408 470 38,000  Level FlightAware ADS-B
01:42PM 44.2213 -80.1175 213° Southwest 414 476 38,000  Level FlightAware ADS-B (EPWA / WAW)
01:43PM 44.0030 -80.3115 213° Southwest 417 480 38,000  Level FlightAware ADS-B (CYKF)
01:44PM 43.9627 -80.3470 212° Southwest 419 482 38,000  Level FlightAware ADS-B (EPWA / WAW)
01:44PM 43.9010 -80.4015 212° Southwest 420 483 38,000  Level FlightAware ADS-B (CYKF)
01:45PM 43.8437 -80.4520 212° Southwest 421 484 38,000  Level FlightAware ADS-B (EPWA / WAW)
01:46PM 43.7909 -80.4985 212° Southwest 420 483 38,000  Level FlightAware ADS-B
01:46PM 43.7525 -80.5321 212° Southwest 420 483 38,000  Level FlightAware ADS-B (EPWA / WAW)
01:47PM 43.6702 -80.6039 212° Southwest 420 483 38,000  Level FlightAware ADS-B (CYKF)
01:47PM 43.6353 -80.6343 212° Southwest 419 482 38,000  Level FlightAware ADS-B
01:48PM 43.5501 -80.7084 212° Southwest 418 481 38,000  Level FlightAware ADS-B (EPWA / WAW)
01:49PM 43.4827 -80.7670 212° Southwest 418 481 38,000  Level FlightAware ADS-B
01:49PM 43.4391 -80.8047 212° Southwest 418 481 38,000  Level FlightAware ADS-B (EPWA / WAW)
01:50PM 43.3787 -80.8569 212° Southwest 418 481 38,000  Level FlightAware ADS-B (CYKF)
01:50PM 43.3073 -80.9184 212° Southwest 417 480 38,000  Level FlightAware ADS-B (EPWA / WAW)
01:51PM 43.2440 -80.9728 212° Southwest 416 479 38,000  Level FlightAware ADS-B (CYKF)
01:52PM 43.1725 -81.0341 212° Southwest 415 478 38,000  Level FlightAware ADS-B (CYKF)
01:52PM 43.1066 -81.0904 212° Southwest 415 478 38,000  Level FlightAware ADS-B (CYKF)
01:53PM 43.0541 -81.1350 212° Southwest 418 481 38,000  Level FlightAware ADS-B (CYKF)
01:54PM 42.9912 -81.1767 206° Southwest 423 487 38,000  Level FlightAware ADS-B (EPWA / WAW)
01:54PM 42.9139 -81.2252 205° Southwest 421 484 38,000  Level FlightAware ADS-B (EPWA / WAW)
01:55PM 42.9371 -81.2105 25° Northeast 420 483 38,000  Level FlightAware ADS-B (CYKF)
01:55PM 42.9371 -81.2105 25° Northeast 419 482 38,000  Level FlightAware ADS-B (CYKF)
01:56PM 42.6893 -81.3641 205° Southwest 420 483 38,000  Level FlightAware ADS-B (CYKF)
01:57PM 42.6386 -81.3951 204° Southwest 422 486 38,000  Level FlightAware ADS-B (EPWA / WAW)
01:58PM 42.5571 -81.4448 204° Southwest 422 486 38,000  Level FlightAware ADS-B (EPWA / WAW)
01:58PM 42.4746 -81.4951 204° Southwest 423 487 38,000  Level FlightAware ADS-B (CYKF)
01:59PM 42.4123 -81.5330 204° Southwest 423 487 38,000  Level FlightAware ADS-B (CYKF)
02:00PM 42.4172 -81.5301 24° Northeast 423 487 38,000  Level FlightAware ADS-B (EPWA / WAW)
02:00PM 42.2806 -81.6127 204° Southwest 422 486 38,000  Level FlightAware ADS-B (EPWA / WAW)
02:01PM 42.1839 -81.6712 204° Southwest 421 484 38,000  Level FlightAware ADS-B (EPWA / WAW)
02:02PM 42.1174 -81.7112 204° Southwest 422 486 38,000  Level FlightAware ADS-B (EPWA / WAW)
02:03PM 42.0581 -81.7475 204° Southwest 422 486 38,000  Level Cleveland Center
02:05PM 41.8431 -81.8758 204° Southwest 419 482 38,000  Level Cleveland Center
02:06PM 41.7178 -81.9486 203° Southwest 419 482 38,000  Level Cleveland Center
02:08PM 41.4689 -82.0953 202° Southwest 419 482 38,000  Level Indianapolis Center
02:09PM 41.3981 -82.1364 204° Southwest 418 481 38,000  Level Cleveland Center
02:10PM 41.2850 -82.1844 198° South 426 490 38,000  Level Cleveland Center
02:12PM 41.0531 -82.2708 196° South 430 495 38,000  Level Cleveland Center
02:14PM 40.7592 -82.3753 195° South 433 498 38,000  Level Indianapolis Center
02:16PM 40.5647 -82.4439 195° South 434 499 38,000  Level Cleveland Center
02:17PM 40.4475 -82.4858 195° South 429 494 38,000  Level Cleveland Center
02:23PM 39.7343 -82.6168 195° South 449 517 38,000  Level FlightAware ADS-B
02:23PM 39.6517 -82.6222 183° South 447 514 38,000  Level FlightAware ADS-B
02:24PM 39.5692 -82.6279 183° South 445 512 38,000  Level FlightAware ADS-B
02:25PM 39.4878 -82.6334 183° South 445 512 38,000  Level FlightAware ADS-B
02:25PM 39.4052 -82.6389 183° South 444 511 38,000  Level FlightAware ADS-B
02:26PM 39.3318 -82.6438 183° South 449 517 38,000  Level FlightAware ADS-B
02:27PM 39.2443 -82.6497 183° South 454 522 38,000  Level FlightAware ADS-B
02:27PM 39.1455 -82.6562 183° South 458 527 38,000  Level FlightAware ADS-B
02:28PM 39.0271 -82.6640 183° South 460 529 38,000  Level FlightAware ADS-B
02:29PM 38.9459 -82.6694 183° South 461 531 38,000  Level FlightAware ADS-B
02:30PM 38.8759 -82.6740 183° South 462 532 38,000  Level FlightAware ADS-B
02:31PM 38.7462 -82.6824 183° South 461 531 38,000  Level FlightAware ADS-B
02:31PM 38.6854 -82.6865 183° South 460 529 38,000  Level FlightAware ADS-B
02:32PM 38.6361 -82.6896 183° South 458 527 38,000  Level FlightAware ADS-B
02:33PM 38.5036 -82.6986 183° South 459 528 38,000  Level Indianapolis Center
02:34PM 38.3553 -82.7089 183° South 457 526 38,000  Level Indianapolis Center
02:36PM 38.0994 -82.7264 183° South 460 529 38,000  Level Indianapolis Center
02:39PM 37.7153 -82.7544 207° Southwest 460 529 38,000  Level Indianapolis Center
02:41PM 37.4806 -82.8819 208° Southwest 422 486 38,000  Level Indianapolis Center
02:42PM 37.3792 -82.9494 208° Southwest 415 478 38,000  Level Indianapolis Center
02:44PM 37.1597 -83.0961 208° Southwest 411 473 38,000  Level Atlanta Center
02:45PM 37.1116 -83.1068 207° Southwest  Level FlightAware Approximate
02:45PM 37.0553 -83.1594 206° Southwest 418 481 38,000  Level Indianapolis Center
02:47PM 36.8486 -83.2969 208° Southwest 417 480 38,000  Level Atlanta Center
02:48PM 36.7486 -83.3575 206° Southwest 417 480 38,000  Level Indianapolis Center
02:49PM 36.6450 -83.4244 207° Southwest 419 482 38,000  Level Indianapolis Center
02:51PM 36.4347 -83.5614 208° Southwest 423 487 38,000  Level Atlanta Center
02:52PM 36.3239 -83.6292 206° Southwest 421 484 38,000  Level Indianapolis Center
02:53PM 36.2203 -83.6953 207° Southwest 419 482 38,000  Level Indianapolis Center
02:54PM 36.0956 -83.7747 207° Southwest 419 482 38,000  Level Indianapolis Center
02:55PM 36.0331 -83.8153 208° Southwest 423 487 38,000  Level Atlanta Center
02:56PM 35.9267 -83.8797 206° Southwest 423 487 38,000 -60 Level Atlanta Center
03:02PM 35.1666 -84.0733 206° Southwest 442 509 37,800 -180 Descending FlightAware ADS-B (KDZJ)
03:02PM 35.0810 -84.0938 191° South 439 505 37,200 -600 Descending FlightAware ADS-B (KDZJ)
03:03PM 34.9995 -84.1133 191° South 443 510 37,000 -180 Descending FlightAware ADS-B (KDZJ)
03:04PM 34.9244 -84.1313 191° South 443 510 37,000  Level FlightAware ADS-B (KDZJ)
03:04PM 34.8389 -84.1516 191° South 441 507 37,000  Level FlightAware ADS-B (KDZJ)
03:05PM 34.7736 -84.1671 191° South 440 506 37,000  Level FlightAware ADS-B (KDZJ)
03:06PM 34.6892 -84.1871 191° South 439 505 37,000  Level FlightAware ADS-B (KDZJ)
03:06PM 34.6008 -84.2080 191° South 430 495 37,000  Level FlightAware ADS-B (KDZJ)
03:07PM 34.5296 -84.2248 191° South 430 495 37,000  Level FlightAware ADS-B (KDZJ)
03:08PM 34.4408 -84.2457 191° South 439 505 37,000  Level FlightAware ADS-B (KDZJ)
03:08PM 34.3620 -84.2642 191° South 440 506 37,000  Level FlightAware ADS-B (KDZJ)
03:09PM 34.2799 -84.2836 191° South 442 509 37,000  Level FlightAware ADS-B (KDZJ)
03:10PM 34.2027 -84.3017 191° South 442 509 37,000  Level FlightAware ADS-B (KDZJ)
03:10PM 34.1193 -84.3211 191° South 442 509 37,000  Level FlightAware ADS-B (KDZJ)
03:11PM 34.0396 -84.3398 191° South 443 510 37,000  Level FlightAware ADS-B (KDZJ)
03:12PM 33.9583 -84.3587 191° South 440 506 37,000  Level FlightAware ADS-B (KDZJ)
03:14PM 33.7625 -84.4061 180° South 442 509 37,000  Level Atlanta Center
03:15PM 33.6414 -84.4331 190° South 442 509 37,000  Level Atlanta Center
03:16PM 33.5139 -84.4375 182° South 447 514 37,000  Level Atlanta Center
03:19PM 33.1297 -84.4308 178° South 457 526 37,000  Level Atlanta Center
03:20PM 33.0149 -84.4167 180° South  Level FlightAware Approximate
03:20PM 33.0047 -84.4278 179° South 457 526 37,000  Level Atlanta Center
03:21PM 32.8753 -84.4272 180° South 462 532 37,000  Level Atlanta Center
03:22PM 32.7625 -84.4192 177° South 456 525 37,000  Level Atlanta Center
03:23PM 32.6353 -84.4186 180° South 456 525 37,000  Level Atlanta Center
03:24PM 32.5078 -84.4156 179° South 456 525 37,000  Level Atlanta Center
03:25PM 32.3806 -84.4128 179° South 456 525 37,000  Level Atlanta Center
03:26PM 32.2553 -84.4072 178° South 456 525 37,000  Level Atlanta Center
03:32PM 29.9399 -83.6902 178° South 465 535 37,000  Level FlightAware ADS-B (KTLH)
03:37PM 30.9668 -84.2721 334° Northwest 471 542 37,000  Level FlightAware ADS-B (KTLH)
03:37PM 30.8614 -84.2227 158° South 468 539 37,000  Level FlightAware ADS-B (KTLH)
03:38PM 30.7911 -84.1897 158° South 467 537 37,000  Level FlightAware ADS-B (KTLH)
03:38PM 30.7087 -84.1511 158° South 467 537 37,000  Level FlightAware ADS-B (KTLH)
03:39PM 30.6390 -84.1185 158° South 467 537 37,000  Level FlightAware ADS-B (KTLH)
03:40PM 30.5421 -84.0733 158° South 465 535 37,000  Level FlightAware ADS-B (KTLH)
03:41PM 30.4282 -84.0202 158° South 463 533 37,000  Level FlightAware ADS-B (KTLH)
03:41PM 30.3470 -83.9825 158° South 460 529 37,000  Level FlightAware ADS-B (KTLH)
03:42PM 30.2687 -83.9462 158° South 459 528 37,000  Level FlightAware ADS-B (KTLH)
03:43PM 30.1898 -83.9096 158° South 460 529 37,000  Level FlightAware ADS-B (KTLH)
03:44PM 30.0442 -83.8423 158° South 459 528 37,000  Level FlightAware ADS-B (KTLH)
03:45PM 29.9728 -83.8095 158° South 457 526 37,000  Level FlightAware ADS-B (KTLH)
03:45PM 29.8899 -83.7713 158° South 456 525 37,000  Level FlightAware ADS-B (KTLH)
03:46PM 29.8439 -83.7522 158° South 455 524 37,000  Level Jacksonville Center
03:47PM 29.7275 -83.6986 158° South 455 524 37,000  Level Jacksonville Center
03:48PM 29.6067 -83.6450 159° South 455 524 37,000  Level Jacksonville Center
03:49PM 29.4900 -83.5917 158° South 455 524 37,000  Level Jacksonville Center
03:51PM 29.2525 -83.4828 158° South 450 518 37,000  Level Jacksonville Center
03:52PM 29.1358 -83.4297 158° South 450 518 37,000  Level Jacksonville Center
03:53PM 29.0172 -83.3769 159° South 450 518 37,000  Level Jacksonville Center
03:54PM 28.8964 -83.3219 158° South 455 524 37,000  Level Jacksonville Center
03:55PM 28.7756 -83.2644 157° South 460 529 37,000  Level Jacksonville Center
03:56PM 28.6567 -83.2144 160° South 460 529 37,000  Level Jacksonville Center
04:02PM 27.9580 -82.9009 160° South 467 537 37,000  Level FlightAware ADS-B (KMCO)
04:03PM 27.8280 -82.8436 159° South 468 539 37,000  Level FlightAware ADS-B (KMCO)
04:03PM 27.7514 -82.8099 159° South 466 536 37,000  Level FlightAware ADS-B (KMCO)
04:04PM 27.6643 -82.7717 159° South 466 536 37,000  Level FlightAware ADS-B (KMCO)
04:05PM 27.5908 -82.7395 159° South 467 537 37,000  Level FlightAware ADS-B (KMCO)
04:09PM 27.0627 -82.6452 171° South 431 496 37,000  Level FlightAware ADS-B (KMCO)
04:11PM 26.8537 -82.6365 178° South 430 495 37,000  Level FlightAware ADS-B (KMCO)
04:12PM 26.7576 -82.6324 178° South 431 496 37,000  Level FlightAware ADS-B (KMCO)
04:13PM 26.6398 -82.6276 178° South 433 498 37,000  Level FlightAware ADS-B (KMCO)
04:13PM 26.5820 -82.6252 178° South 434 499 37,000  Level FlightAware ADS-B (KMCO)
04:14PM 26.5142 -82.6223 178° South 435 501 37,000  Level FlightAware ADS-B (KMCO)
04:14PM 26.4158 -82.6182 178° South 434 499 37,000  Level FlightAware ADS-B (KMCO)
04:15PM 26.3365 -82.6148 178° South 435 501 37,000  Level FlightAware ADS-B (KMCO)
04:16PM 26.2533 -82.6114 178° South 435 501 37,000  Level FlightAware ADS-B (KMCO)
04:18PM 25.9339 -82.5980 178° South 437 503 37,000  Level FlightAware ADS-B (KMCO)
04:19PM 25.8336 -82.5939 178° South 438 504 37,000  Level FlightAware ADS-B (KMCO)
04:20PM 25.7473 -82.5902 178° South 439 505 37,000  Level FlightAware ADS-B (KMCO)
04:20PM 25.6848 -82.5877 178° South 439 505 37,000  Level FlightAware ADS-B (KMCO)
04:21PM 25.6758 -82.5914 178° South 438 504 37,000  Level Miami Center
04:21PM 25.6035 -82.5844 178° South 440 506 37,000  Level FlightAware ADS-B (KMCO)
04:22PM 25.5528 -82.5856 178° South 438 504 37,000  Level Miami Center
04:23PM 25.4319 -82.5797 178° South 438 504 37,000 -300 Level Miami Center
04:26PM 25.0672 -82.5650 176° South 438 504 35,900 -660 Descending Miami Center
04:28PM 24.8214 -82.5558 178° South 443 510 33,900 -1,320 Descending Miami Center
04:31PM 24.4772 -82.5422 176° South 433 498 29,400 -1,620 Descending Miami Center
04:33PM 24.2522 -82.5322 178° South 415 478 25,900 -1,740 Descending Miami Center
04:34PM 24.1439 -82.5272 178° South 401 461 24,200 -1,740 Descending Miami Center
04:35PM 24.0375 -82.5269 180° South 396 456 22,500 -1,740 Descending Miami Center
04:37PM 23.7983 -82.4999 173° South  Level Estimated
04:44PM 22.9891 -82.4091 180° South  Level Estimated
04:45PM 22.9891 -82.4091 180° South  Level Estimated
04:46PM 22.9891 -82.4091 180° South  Level Estimated
04:47PM 22.9891 -82.4091 180° South  Level Estimated
04:48PM 22.9891 -82.4091 180° South  Level Estimated
04:49PM 22.9891 -82.4091 180° South  Level Estimated
04:50PM 22.9891 -82.4091 180° South  Level Estimated
04:51PM 22.9891 -82.4091 180° South  Level Estimated
04:52PM 22.9891 -82.4091 180° South  Level Estimated
04:53PM 22.9891 -82.4091 180° South  Level Estimated
04:54PM 22.9891 -82.4091 180° South  Level Estimated
04:55PM 22.9891 -82.4091 180° South  Level Estimated
04:56PM 22.9891 -82.4091 180° South  Level Estimated
04:57PM 22.9891 -82.4091 180° South  Level Estimated
04:58PM 22.9891 -82.4091 180° South  Level Estimated
04:59PM 22.9891 -82.4091 180° South  Level Estimated
05:00PM 22.9891 -82.4091 180° South  Level Estimated
05:01PM 22.9891 -82.4091 180° South  Level Estimated
05:02PM 22.9891 -82.4091 180° South  Level Estimated
05:03PM 22.9891 -82.4091 180° South  Level Estimated
05:04PM 22.9891 -82.4091 180° South  Level Estimated
05:05PM 22.9891 -82.4091 180° South  Level Estimated
05:06PM 22.9891 -82.4091 180° South  Level Estimated
05:07PM 22.9891 -82.4091 180° South  Level Estimated
05:08PM 22.9891 -82.4091 180° South  Level Estimated
05:09PM 22.9891 -82.4091 180° South  Level Estimated
05:10PM 22.9891 -82.4091 180° South  Level Estimated
05:11PM 22.9891 -82.4091 180° South  Level Estimated
05:12PM 22.9891 -82.4091 180° South  Level Estimated
05:13PM 22.9891 -82.4091 180° South  Level Estimated
05:14PM 22.9891 -82.4091 180° South  Level Estimated
05:15PM 22.9891 -82.4091 180° South  Level Estimated